sensor_id;sensor_type;location;lat;lon;timestamp;P1;durP1;ratioP1;P2;durP2;ratioP2
43694;SDS011;29300;43.560;1.294;2022-10-31T00:00:57;5.85;;;3.92;;
43694;SDS011;29300;43.560;1.294;2022-10-31T00:03:24;5.47;;;3.50;;
43694;SDS011;29300;43.560;1.294;2022-10-31T00:05:51;5.53;;;3.63;;
43694;SDS011;29300;43.560;1.294;2022-10-31T00:08:18;4.65;;;3.50;;
43694;SDS011;29300;43.560;1.294;2022-10-31T00:10:44;6.18;;;3.28;;
43694;SDS011;29300;43.560;1.294;2022-10-31T00:13:11;4.38;;;3.55;;
43694;SDS011;29300;43.560;1.294;2022-10-31T00:15:39;9.07;;;4.28;;
43694;SDS011;29300;43.560;1.294;2022-10-31T00:18:06;4.15;;;3.13;;
43694;SDS011;29300;43.560;1.294;2022-10-31T00:20:33;4.20;;;3.70;;
43694;SDS011;29300;43.560;1.294;2022-10-31T00:22:59;5.68;;;3.08;;
43694;SDS011;29300;43.560;1.294;2022-10-31T00:25:26;4.40;;;3.13;;
43694;SDS011;29300;43.560;1.294;2022-10-31T00:27:52;5.68;;;4.15;;
43694;SDS011;29300;43.560;1.294;2022-10-31T00:30:18;5.47;;;3.83;;
43694;SDS011;29300;43.560;1.294;2022-10-31T00:32:44;5.57;;;4.00;;
43694;SDS011;29300;43.560;1.294;2022-10-31T00:35:10;7.78;;;4.47;;
43694;SDS011;29300;43.560;1.294;2022-10-31T00:37:36;5.93;;;4.28;;
43694;SDS011;29300;43.560;1.294;2022-10-31T00:40:01;5.40;;;3.60;;
43694;SDS011;29300;43.560;1.294;2022-10-31T00:42:27;7.43;;;4.55;;
43694;SDS011;29300;43.560;1.294;2022-10-31T00:44:53;9.60;;;4.63;;
43694;SDS011;29300;43.560;1.294;2022-10-31T00:47:18;5.35;;;3.83;;
43694;SDS011;29300;43.560;1.294;2022-10-31T00:49:44;9.77;;;4.35;;
43694;SDS011;29300;43.560;1.294;2022-10-31T00:52:10;9.07;;;4.10;;
43694;SDS011;29300;43.560;1.294;2022-10-31T00:54:35;7.93;;;4.03;;
43694;SDS011;29300;43.560;1.294;2022-10-31T00:57:01;6.57;;;4.32;;
43694;SDS011;29300;43.560;1.294;2022-10-31T00:59:27;5.72;;;4.18;;
43694;SDS011;29300;43.560;1.294;2022-10-31T01:01:53;7.85;;;4.40;;
43694;SDS011;29300;43.560;1.294;2022-10-31T01:04:18;7.15;;;4.25;;
43694;SDS011;29300;43.560;1.294;2022-10-31T01:06:44;5.90;;;3.90;;
43694;SDS011;29300;43.560;1.294;2022-10-31T01:09:10;5.00;;;3.83;;
43694;SDS011;29300;43.560;1.294;2022-10-31T01:11:36;5.30;;;4.63;;
43694;SDS011;29300;43.560;1.294;2022-10-31T01:14:01;6.15;;;4.38;;
43694;SDS011;29300;43.560;1.294;2022-10-31T01:16:27;7.30;;;4.10;;
43694;SDS011;29300;43.560;1.294;2022-10-31T01:18:54;6.18;;;3.80;;
43694;SDS011;29300;43.560;1.294;2022-10-31T01:21:21;6.80;;;3.58;;
43694;SDS011;29300;43.560;1.294;2022-10-31T01:23:49;6.55;;;4.30;;
43694;SDS011;29300;43.560;1.294;2022-10-31T01:26:20;4.60;;;4.00;;
43694;SDS011;29300;43.560;1.294;2022-10-31T01:28:51;7.78;;;3.95;;
43694;SDS011;29300;43.560;1.294;2022-10-31T01:31:19;4.90;;;4.03;;
43694;SDS011;29300;43.560;1.294;2022-10-31T01:33:46;3.88;;;3.47;;
43694;SDS011;29300;43.560;1.294;2022-10-31T01:36:13;6.40;;;4.32;;
43694;SDS011;29300;43.560;1.294;2022-10-31T01:38:47;4.10;;;3.40;;
43694;SDS011;29300;43.560;1.294;2022-10-31T01:41:15;7.13;;;4.25;;
43694;SDS011;29300;43.560;1.294;2022-10-31T01:43:48;6.00;;;3.60;;
43694;SDS011;29300;43.560;1.294;2022-10-31T01:48:57;6.78;;;4.10;;
43694;SDS011;29300;43.560;1.294;2022-10-31T01:51:29;6.65;;;3.92;;
43694;SDS011;29300;43.560;1.294;2022-10-31T01:53:59;4.47;;;3.72;;
43694;SDS011;29300;43.560;1.294;2022-10-31T01:56:28;5.90;;;4.55;;
43694;SDS011;29300;43.560;1.294;2022-10-31T01:58:55;5.93;;;4.20;;
43694;SDS011;29300;43.560;1.294;2022-10-31T02:01:22;3.92;;;3.50;;
43694;SDS011;29300;43.560;1.294;2022-10-31T02:03:48;5.97;;;4.18;;
43694;SDS011;29300;43.560;1.294;2022-10-31T02:06:19;4.60;;;4.20;;
43694;SDS011;29300;43.560;1.294;2022-10-31T02:08:58;6.15;;;3.60;;
43694;SDS011;29300;43.560;1.294;2022-10-31T02:11:25;6.72;;;4.07;;
43694;SDS011;29300;43.560;1.294;2022-10-31T02:13:53;4.97;;;3.80;;
43694;SDS011;29300;43.560;1.294;2022-10-31T02:16:19;6.53;;;4.40;;
43694;SDS011;29300;43.560;1.294;2022-10-31T02:18:45;7.63;;;3.83;;
43694;SDS011;29300;43.560;1.294;2022-10-31T02:37:57;3.90;;;3.25;;
43694;SDS011;29300;43.560;1.294;2022-10-31T02:41:27;5.32;;;3.70;;
43694;SDS011;29300;43.560;1.294;2022-10-31T02:46:49;4.57;;;4.05;;
43694;SDS011;29300;43.560;1.294;2022-10-31T02:51:57;5.07;;;3.70;;
43694;SDS011;29300;43.560;1.294;2022-10-31T02:54:24;4.88;;;3.53;;
43694;SDS011;29300;43.560;1.294;2022-10-31T02:56:53;7.90;;;4.45;;
43694;SDS011;29300;43.560;1.294;2022-10-31T02:59:25;6.72;;;4.35;;
43694;SDS011;29300;43.560;1.294;2022-10-31T03:12:37;6.20;;;4.50;;
43694;SDS011;29300;43.560;1.294;2022-10-31T03:15:19;5.15;;;4.32;;
43694;SDS011;29300;43.560;1.294;2022-10-31T03:20:27;5.18;;;3.95;;
43694;SDS011;29300;43.560;1.294;2022-10-31T03:23:15;7.80;;;5.13;;
43694;SDS011;29300;43.560;1.294;2022-10-31T03:25:42;7.50;;;4.70;;
43694;SDS011;29300;43.560;1.294;2022-10-31T03:28:10;9.18;;;5.13;;
43694;SDS011;29300;43.560;1.294;2022-10-31T03:30:38;6.03;;;4.35;;
43694;SDS011;29300;43.560;1.294;2022-10-31T03:33:09;6.70;;;4.30;;
43694;SDS011;29300;43.560;1.294;2022-10-31T03:35:41;6.43;;;4.43;;
43694;SDS011;29300;43.560;1.294;2022-10-31T03:38:09;6.70;;;4.65;;
43694;SDS011;29300;43.560;1.294;2022-10-31T03:40:36;7.43;;;4.45;;
43694;SDS011;29300;43.560;1.294;2022-10-31T03:43:05;8.05;;;4.68;;
43694;SDS011;29300;43.560;1.294;2022-10-31T03:45:36;6.00;;;4.95;;
43694;SDS011;29300;43.560;1.294;2022-10-31T03:48:08;7.15;;;4.82;;
43694;SDS011;29300;43.560;1.294;2022-10-31T03:50:44;6.13;;;4.70;;
43694;SDS011;29300;43.560;1.294;2022-10-31T03:53:24;8.93;;;4.40;;
43694;SDS011;29300;43.560;1.294;2022-10-31T03:56:04;6.97;;;4.50;;
43694;SDS011;29300;43.560;1.294;2022-10-31T03:59:19;4.80;;;4.13;;
43694;SDS011;29300;43.560;1.294;2022-10-31T04:01:25;6.20;;;4.70;;
43694;SDS011;29300;43.560;1.294;2022-10-31T04:03:54;6.65;;;4.60;;
43694;SDS011;29300;43.560;1.294;2022-10-31T04:06:21;4.72;;;3.90;;
43694;SDS011;29300;43.560;1.294;2022-10-31T04:08:49;8.45;;;4.85;;
43694;SDS011;29300;43.560;1.294;2022-10-31T04:11:28;5.78;;;4.30;;
43694;SDS011;29300;43.560;1.294;2022-10-31T04:13:57;7.07;;;4.80;;
43694;SDS011;29300;43.560;1.294;2022-10-31T04:16:26;5.53;;;4.22;;
43694;SDS011;29300;43.560;1.294;2022-10-31T04:18:52;8.20;;;4.57;;
43694;SDS011;29300;43.560;1.294;2022-10-31T04:21:18;6.25;;;4.05;;
43694;SDS011;29300;43.560;1.294;2022-10-31T04:23:44;7.95;;;4.40;;
43694;SDS011;29300;43.560;1.294;2022-10-31T04:26:12;5.57;;;4.20;;
43694;SDS011;29300;43.560;1.294;2022-10-31T04:28:38;7.47;;;4.43;;
43694;SDS011;29300;43.560;1.294;2022-10-31T04:31:04;6.18;;;4.70;;
43694;SDS011;29300;43.560;1.294;2022-10-31T04:33:30;5.07;;;4.55;;
43694;SDS011;29300;43.560;1.294;2022-10-31T04:35:55;7.90;;;4.53;;
43694;SDS011;29300;43.560;1.294;2022-10-31T04:38:21;6.63;;;4.65;;
43694;SDS011;29300;43.560;1.294;2022-10-31T04:40:47;6.63;;;4.68;;
43694;SDS011;29300;43.560;1.294;2022-10-31T04:43:12;7.57;;;4.20;;
43694;SDS011;29300;43.560;1.294;2022-10-31T04:45:38;7.47;;;4.28;;
43694;SDS011;29300;43.560;1.294;2022-10-31T04:48:04;5.72;;;4.10;;
43694;SDS011;29300;43.560;1.294;2022-10-31T04:50:29;6.65;;;4.20;;
43694;SDS011;29300;43.560;1.294;2022-10-31T04:52:55;6.93;;;4.03;;
43694;SDS011;29300;43.560;1.294;2022-10-31T04:55:21;8.38;;;4.72;;
43694;SDS011;29300;43.560;1.294;2022-10-31T04:57:48;6.68;;;4.43;;
43694;SDS011;29300;43.560;1.294;2022-10-31T05:00:15;6.88;;;5.03;;
43694;SDS011;29300;43.560;1.294;2022-10-31T05:02:43;6.65;;;4.20;;
43694;SDS011;29300;43.560;1.294;2022-10-31T05:05:09;5.75;;;4.13;;
43694;SDS011;29300;43.560;1.294;2022-10-31T05:07:39;5.28;;;4.63;;
43694;SDS011;29300;43.560;1.294;2022-10-31T05:10:06;6.30;;;4.30;;
43694;SDS011;29300;43.560;1.294;2022-10-31T05:12:32;7.40;;;4.50;;
43694;SDS011;29300;43.560;1.294;2022-10-31T05:14:57;8.35;;;4.70;;
43694;SDS011;29300;43.560;1.294;2022-10-31T05:17:23;5.90;;;4.18;;
43694;SDS011;29300;43.560;1.294;2022-10-31T05:19:49;4.93;;;4.30;;
43694;SDS011;29300;43.560;1.294;2022-10-31T05:22:14;5.45;;;4.07;;
43694;SDS011;29300;43.560;1.294;2022-10-31T05:24:40;6.18;;;4.28;;
43694;SDS011;29300;43.560;1.294;2022-10-31T05:27:06;5.43;;;4.25;;
43694;SDS011;29300;43.560;1.294;2022-10-31T05:29:31;5.50;;;4.18;;
43694;SDS011;29300;43.560;1.294;2022-10-31T05:31:58;6.95;;;4.28;;
43694;SDS011;29300;43.560;1.294;2022-10-31T05:34:24;4.47;;;3.58;;
43694;SDS011;29300;43.560;1.294;2022-10-31T05:36:50;6.03;;;4.05;;
43694;SDS011;29300;43.560;1.294;2022-10-31T05:39:15;5.95;;;4.28;;
43694;SDS011;29300;43.560;1.294;2022-10-31T05:41:41;6.25;;;3.95;;
43694;SDS011;29300;43.560;1.294;2022-10-31T05:44:07;6.20;;;4.75;;
43694;SDS011;29300;43.560;1.294;2022-10-31T05:46:33;5.00;;;3.67;;
43694;SDS011;29300;43.560;1.294;2022-10-31T05:48:58;5.68;;;4.13;;
43694;SDS011;29300;43.560;1.294;2022-10-31T05:51:24;7.07;;;4.00;;
43694;SDS011;29300;43.560;1.294;2022-10-31T05:53:50;6.65;;;4.35;;
43694;SDS011;29300;43.560;1.294;2022-10-31T05:56:15;7.50;;;4.38;;
43694;SDS011;29300;43.560;1.294;2022-10-31T05:58:41;5.82;;;4.32;;
43694;SDS011;29300;43.560;1.294;2022-10-31T06:01:07;4.68;;;4.15;;
43694;SDS011;29300;43.560;1.294;2022-10-31T06:03:32;6.68;;;4.47;;
43694;SDS011;29300;43.560;1.294;2022-10-31T06:05:58;6.38;;;4.40;;
43694;SDS011;29300;43.560;1.294;2022-10-31T06:08:24;5.57;;;4.45;;
43694;SDS011;29300;43.560;1.294;2022-10-31T06:10:49;5.55;;;4.43;;
43694;SDS011;29300;43.560;1.294;2022-10-31T06:13:15;7.05;;;4.70;;
43694;SDS011;29300;43.560;1.294;2022-10-31T06:15:41;5.82;;;4.85;;
43694;SDS011;29300;43.560;1.294;2022-10-31T06:18:07;5.05;;;3.95;;
43694;SDS011;29300;43.560;1.294;2022-10-31T06:20:33;5.55;;;4.00;;
43694;SDS011;29300;43.560;1.294;2022-10-31T06:22:59;5.78;;;4.00;;
43694;SDS011;29300;43.560;1.294;2022-10-31T06:25:25;6.10;;;3.97;;
43694;SDS011;29300;43.560;1.294;2022-10-31T06:27:51;7.45;;;4.30;;
43694;SDS011;29300;43.560;1.294;2022-10-31T06:30:17;5.57;;;3.70;;
43694;SDS011;29300;43.560;1.294;2022-10-31T06:32:43;4.93;;;3.88;;
43694;SDS011;29300;43.560;1.294;2022-10-31T06:35:08;5.00;;;3.97;;
43694;SDS011;29300;43.560;1.294;2022-10-31T06:37:34;6.10;;;4.00;;
43694;SDS011;29300;43.560;1.294;2022-10-31T06:40:00;4.60;;;4.03;;
43694;SDS011;29300;43.560;1.294;2022-10-31T06:42:26;4.30;;;3.90;;
43694;SDS011;29300;43.560;1.294;2022-10-31T06:44:51;5.63;;;3.95;;
43694;SDS011;29300;43.560;1.294;2022-10-31T06:47:17;4.00;;;3.60;;
43694;SDS011;29300;43.560;1.294;2022-10-31T06:49:43;5.55;;;4.45;;
43694;SDS011;29300;43.560;1.294;2022-10-31T06:52:08;5.07;;;4.10;;
43694;SDS011;29300;43.560;1.294;2022-10-31T06:54:34;5.30;;;3.58;;
43694;SDS011;29300;43.560;1.294;2022-10-31T06:57:00;6.13;;;3.65;;
43694;SDS011;29300;43.560;1.294;2022-10-31T06:59:25;6.97;;;4.57;;
43694;SDS011;29300;43.560;1.294;2022-10-31T07:01:51;6.60;;;4.22;;
43694;SDS011;29300;43.560;1.294;2022-10-31T07:04:17;5.25;;;4.18;;
43694;SDS011;29300;43.560;1.294;2022-10-31T07:06:43;5.28;;;4.05;;
43694;SDS011;29300;43.560;1.294;2022-10-31T07:09:08;5.70;;;4.20;;
43694;SDS011;29300;43.560;1.294;2022-10-31T07:11:34;4.75;;;4.07;;
43694;SDS011;29300;43.560;1.294;2022-10-31T07:13:59;6.43;;;4.28;;
43694;SDS011;29300;43.560;1.294;2022-10-31T07:16:25;5.45;;;4.07;;
43694;SDS011;29300;43.560;1.294;2022-10-31T07:18:51;5.25;;;4.40;;
43694;SDS011;29300;43.560;1.294;2022-10-31T07:21:16;7.05;;;4.43;;
43694;SDS011;29300;43.560;1.294;2022-10-31T07:23:42;6.78;;;3.95;;
43694;SDS011;29300;43.560;1.294;2022-10-31T07:26:08;5.28;;;4.20;;
43694;SDS011;29300;43.560;1.294;2022-10-31T07:28:35;6.57;;;4.38;;
43694;SDS011;29300;43.560;1.294;2022-10-31T07:31:00;5.32;;;4.63;;
43694;SDS011;29300;43.560;1.294;2022-10-31T07:33:26;7.57;;;5.15;;
43694;SDS011;29300;43.560;1.294;2022-10-31T07:35:52;6.30;;;4.28;;
43694;SDS011;29300;43.560;1.294;2022-10-31T07:38:18;5.25;;;4.75;;
43694;SDS011;29300;43.560;1.294;2022-10-31T07:40:48;6.45;;;5.00;;
43694;SDS011;29300;43.560;1.294;2022-10-31T07:43:16;6.38;;;4.60;;
43694;SDS011;29300;43.560;1.294;2022-10-31T07:45:42;7.03;;;5.00;;
43694;SDS011;29300;43.560;1.294;2022-10-31T07:48:08;6.18;;;4.70;;
43694;SDS011;29300;43.560;1.294;2022-10-31T07:50:33;7.03;;;5.18;;
43694;SDS011;29300;43.560;1.294;2022-10-31T07:55:33;5.57;;;5.05;;
43694;SDS011;29300;43.560;1.294;2022-10-31T07:57:59;5.57;;;4.95;;
43694;SDS011;29300;43.560;1.294;2022-10-31T08:00:33;6.45;;;5.00;;
43694;SDS011;29300;43.560;1.294;2022-10-31T08:03:01;5.25;;;4.75;;
43694;SDS011;29300;43.560;1.294;2022-10-31T08:05:34;6.72;;;5.05;;
43694;SDS011;29300;43.560;1.294;2022-10-31T08:08:00;6.90;;;5.68;;
43694;SDS011;29300;43.560;1.294;2022-10-31T08:10:27;8.73;;;5.45;;
43694;SDS011;29300;43.560;1.294;2022-10-31T08:12:59;6.70;;;4.85;;
43694;SDS011;29300;43.560;1.294;2022-10-31T08:15:27;10.80;;;5.30;;
43694;SDS011;29300;43.560;1.294;2022-10-31T08:17:53;9.38;;;5.32;;
43694;SDS011;29300;43.560;1.294;2022-10-31T08:20:19;7.82;;;5.53;;
43694;SDS011;29300;43.560;1.294;2022-10-31T08:22:52;8.45;;;5.50;;
43694;SDS011;29300;43.560;1.294;2022-10-31T08:25:26;6.97;;;5.22;;
43694;SDS011;29300;43.560;1.294;2022-10-31T08:27:53;8.85;;;5.75;;
43694;SDS011;29300;43.560;1.294;2022-10-31T08:30:20;7.90;;;5.57;;
43694;SDS011;29300;43.560;1.294;2022-10-31T08:32:47;7.30;;;5.05;;
43694;SDS011;29300;43.560;1.294;2022-10-31T08:35:21;7.75;;;5.63;;
43694;SDS011;29300;43.560;1.294;2022-10-31T08:37:51;6.45;;;5.13;;
43694;SDS011;29300;43.560;1.294;2022-10-31T08:40:21;7.05;;;5.38;;
43694;SDS011;29300;43.560;1.294;2022-10-31T08:42:47;8.88;;;5.28;;
43694;SDS011;29300;43.560;1.294;2022-10-31T08:45:13;5.45;;;4.80;;
43694;SDS011;29300;43.560;1.294;2022-10-31T08:47:38;7.38;;;5.22;;
43694;SDS011;29300;43.560;1.294;2022-10-31T08:50:04;8.98;;;5.25;;
43694;SDS011;29300;43.560;1.294;2022-10-31T08:52:30;9.07;;;5.53;;
43694;SDS011;29300;43.560;1.294;2022-10-31T08:54:56;8.27;;;4.82;;
43694;SDS011;29300;43.560;1.294;2022-10-31T08:57:21;6.63;;;5.35;;
43694;SDS011;29300;43.560;1.294;2022-10-31T08:59:47;9.60;;;6.03;;
43694;SDS011;29300;43.560;1.294;2022-10-31T09:02:13;9.43;;;6.53;;
43694;SDS011;29300;43.560;1.294;2022-10-31T09:04:38;8.50;;;6.18;;
43694;SDS011;29300;43.560;1.294;2022-10-31T09:07:04;9.38;;;6.05;;
43694;SDS011;29300;43.560;1.294;2022-10-31T09:09:29;9.95;;;6.28;;
43694;SDS011;29300;43.560;1.294;2022-10-31T09:11:55;11.77;;;6.28;;
43694;SDS011;29300;43.560;1.294;2022-10-31T09:14:21;15.70;;;6.88;;
43694;SDS011;29300;43.560;1.294;2022-10-31T09:16:46;12.77;;;6.93;;
43694;SDS011;29300;43.560;1.294;2022-10-31T09:19:12;10.68;;;6.43;;
43694;SDS011;29300;43.560;1.294;2022-10-31T09:21:38;11.02;;;6.07;;
43694;SDS011;29300;43.560;1.294;2022-10-31T09:24:03;10.50;;;7.32;;
43694;SDS011;29300;43.560;1.294;2022-10-31T09:26:29;11.52;;;6.32;;
43694;SDS011;29300;43.560;1.294;2022-10-31T09:28:55;8.75;;;6.13;;
43694;SDS011;29300;43.560;1.294;2022-10-31T09:31:23;15.27;;;6.18;;
43694;SDS011;29300;43.560;1.294;2022-10-31T09:33:49;14.88;;;6.45;;
43694;SDS011;29300;43.560;1.294;2022-10-31T09:36:14;10.77;;;7.57;;
43694;SDS011;29300;43.560;1.294;2022-10-31T09:38:40;12.10;;;6.72;;
43694;SDS011;29300;43.560;1.294;2022-10-31T09:46:46;8.00;;;6.18;;
43694;SDS011;29300;43.560;1.294;2022-10-31T09:49:29;9.63;;;5.57;;
43694;SDS011;29300;43.560;1.294;2022-10-31T09:54:35;10.02;;;6.10;;
43694;SDS011;29300;43.560;1.294;2022-10-31T09:57:13;12.00;;;6.97;;
43694;SDS011;29300;43.560;1.294;2022-10-31T09:59:41;9.18;;;5.82;;
43694;SDS011;29300;43.560;1.294;2022-10-31T10:13:19;12.35;;;6.60;;
43694;SDS011;29300;43.560;1.294;2022-10-31T10:18:38;11.45;;;6.93;;
43694;SDS011;29300;43.560;1.294;2022-10-31T10:21:24;10.65;;;6.60;;
43694;SDS011;29300;43.560;1.294;2022-10-31T10:26:50;15.82;;;6.50;;
43694;SDS011;29300;43.560;1.294;2022-10-31T10:31:50;11.85;;;5.88;;
43694;SDS011;29300;43.560;1.294;2022-10-31T10:34:29;9.77;;;5.95;;
43694;SDS011;29300;43.560;1.294;2022-10-31T10:39:38;13.50;;;7.28;;
43694;SDS011;29300;43.560;1.294;2022-10-31T10:42:11;10.10;;;6.10;;
43694;SDS011;29300;43.560;1.294;2022-10-31T10:44:57;13.70;;;6.25;;
43694;SDS011;29300;43.560;1.294;2022-10-31T10:47:43;13.73;;;7.15;;
43694;SDS011;29300;43.560;1.294;2022-10-31T10:50:20;13.57;;;6.87;;
43694;SDS011;29300;43.560;1.294;2022-10-31T10:53:05;10.40;;;6.55;;
43694;SDS011;29300;43.560;1.294;2022-10-31T10:56:08;12.18;;;6.75;;
43694;SDS011;29300;43.560;1.294;2022-10-31T10:58:41;10.07;;;6.22;;
43694;SDS011;29300;43.560;1.294;2022-10-31T11:01:11;9.48;;;5.65;;
43694;SDS011;29300;43.560;1.294;2022-10-31T11:03:38;13.05;;;5.88;;
43694;SDS011;29300;43.560;1.294;2022-10-31T11:06:15;12.85;;;6.22;;
43694;SDS011;29300;43.560;1.294;2022-10-31T11:08:42;12.38;;;6.00;;
43694;SDS011;29300;43.560;1.294;2022-10-31T11:11:12;10.65;;;5.55;;
43694;SDS011;29300;43.560;1.294;2022-10-31T11:14:00;8.48;;;5.95;;
43694;SDS011;29300;43.560;1.294;2022-10-31T11:16:37;10.60;;;5.32;;
43694;SDS011;29300;43.560;1.294;2022-10-31T11:19:06;9.48;;;5.38;;
43694;SDS011;29300;43.560;1.294;2022-10-31T11:21:32;10.63;;;5.45;;
43694;SDS011;29300;43.560;1.294;2022-10-31T11:26:34;12.35;;;6.57;;
43694;SDS011;29300;43.560;1.294;2022-10-31T11:29:03;8.07;;;5.60;;
43694;SDS011;29300;43.560;1.294;2022-10-31T11:31:30;8.75;;;5.68;;
43694;SDS011;29300;43.560;1.294;2022-10-31T11:34:01;7.43;;;5.07;;
43694;SDS011;29300;43.560;1.294;2022-10-31T11:36:32;8.85;;;5.00;;
43694;SDS011;29300;43.560;1.294;2022-10-31T11:39:01;10.13;;;5.07;;
43694;SDS011;29300;43.560;1.294;2022-10-31T11:41:29;10.20;;;5.55;;
43694;SDS011;29300;43.560;1.294;2022-10-31T11:43:58;10.15;;;5.43;;
43694;SDS011;29300;43.560;1.294;2022-10-31T11:46:38;10.32;;;5.15;;
43694;SDS011;29300;43.560;1.294;2022-10-31T11:51:38;9.95;;;5.10;;
43694;SDS011;29300;43.560;1.294;2022-10-31T11:54:05;9.30;;;5.55;;
43694;SDS011;29300;43.560;1.294;2022-10-31T11:56:41;6.78;;;5.00;;
43694;SDS011;29300;43.560;1.294;2022-10-31T11:59:17;7.85;;;4.70;;
43694;SDS011;29300;43.560;1.294;2022-10-31T12:01:48;9.63;;;5.03;;
43694;SDS011;29300;43.560;1.294;2022-10-31T12:04:15;13.52;;;5.53;;
43694;SDS011;29300;43.560;1.294;2022-10-31T12:06:44;7.35;;;4.65;;
43694;SDS011;29300;43.560;1.294;2022-10-31T12:09:21;9.00;;;5.55;;
43694;SDS011;29300;43.560;1.294;2022-10-31T12:17:29;9.63;;;4.75;;
43694;SDS011;29300;43.560;1.294;2022-10-31T12:20:07;9.75;;;5.50;;
43694;SDS011;29300;43.560;1.294;2022-10-31T12:25:45;12.10;;;5.18;;
43694;SDS011;29300;43.560;1.294;2022-10-31T12:39:19;8.13;;;4.70;;
43694;SDS011;29300;43.560;1.294;2022-10-31T12:45:07;9.43;;;4.97;;
43694;SDS011;29300;43.560;1.294;2022-10-31T12:48:07;13.55;;;5.35;;
43694;SDS011;29300;43.560;1.294;2022-10-31T12:59:40;8.80;;;4.55;;
43694;SDS011;29300;43.560;1.294;2022-10-31T13:04:44;8.77;;;4.85;;
43694;SDS011;29300;43.560;1.294;2022-10-31T13:07:48;6.35;;;4.78;;
43694;SDS011;29300;43.560;1.294;2022-10-31T13:13:19;7.65;;;4.70;;
43694;SDS011;29300;43.560;1.294;2022-10-31T13:15:54;6.80;;;4.63;;
43694;SDS011;29300;43.560;1.294;2022-10-31T13:18:33;7.72;;;4.65;;
43694;SDS011;29300;43.560;1.294;2022-10-31T13:21:08;11.13;;;5.00;;
43694;SDS011;29300;43.560;1.294;2022-10-31T13:23:40;8.70;;;4.47;;
43694;SDS011;29300;43.560;1.294;2022-10-31T13:31:43;8.45;;;4.78;;
43694;SDS011;29300;43.560;1.294;2022-10-31T13:45:11;7.53;;;4.80;;
43694;SDS011;29300;43.560;1.294;2022-10-31T13:47:40;9.75;;;5.22;;
43694;SDS011;29300;43.560;1.294;2022-10-31T13:50:28;8.82;;;4.38;;
43694;SDS011;29300;43.560;1.294;2022-10-31T13:53:10;8.02;;;4.40;;
43694;SDS011;29300;43.560;1.294;2022-10-31T13:58:22;8.77;;;4.78;;
43694;SDS011;29300;43.560;1.294;2022-10-31T14:03:37;7.57;;;4.53;;
43694;SDS011;29300;43.560;1.294;2022-10-31T14:06:05;8.35;;;4.72;;
43694;SDS011;29300;43.560;1.294;2022-10-31T14:08:34;12.77;;;5.22;;
43694;SDS011;29300;43.560;1.294;2022-10-31T14:11:02;13.90;;;5.32;;
43694;SDS011;29300;43.560;1.294;2022-10-31T14:13:35;11.93;;;5.03;;
43694;SDS011;29300;43.560;1.294;2022-10-31T14:19:00;8.25;;;5.00;;
43694;SDS011;29300;43.560;1.294;2022-10-31T14:21:27;8.77;;;4.82;;
43694;SDS011;29300;43.560;1.294;2022-10-31T14:23:55;7.22;;;4.18;;
43694;SDS011;29300;43.560;1.294;2022-10-31T14:53:17;10.90;;;4.82;;
43694;SDS011;29300;43.560;1.294;2022-10-31T14:55:48;6.35;;;4.28;;
43694;SDS011;29300;43.560;1.294;2022-10-31T14:58:25;6.53;;;4.35;;
43694;SDS011;29300;43.560;1.294;2022-10-31T15:00:59;8.57;;;4.85;;
43694;SDS011;29300;43.560;1.294;2022-10-31T15:03:30;7.90;;;5.00;;
43694;SDS011;29300;43.560;1.294;2022-10-31T15:06:03;10.77;;;4.93;;
43694;SDS011;29300;43.560;1.294;2022-10-31T15:08:39;5.10;;;4.60;;
43694;SDS011;29300;43.560;1.294;2022-10-31T15:13:50;9.32;;;5.47;;
43694;SDS011;29300;43.560;1.294;2022-10-31T15:16:22;7.80;;;4.75;;
43694;SDS011;29300;43.560;1.294;2022-10-31T15:21:19;6.13;;;4.45;;
43694;SDS011;29300;43.560;1.294;2022-10-31T15:23:46;9.32;;;4.80;;
43694;SDS011;29300;43.560;1.294;2022-10-31T15:26:15;6.55;;;4.55;;
43694;SDS011;29300;43.560;1.294;2022-10-31T15:28:44;9.75;;;4.75;;
43694;SDS011;29300;43.560;1.294;2022-10-31T15:31:15;7.28;;;4.28;;
43694;SDS011;29300;43.560;1.294;2022-10-31T15:33:42;10.15;;;4.30;;
43694;SDS011;29300;43.560;1.294;2022-10-31T15:36:20;6.93;;;4.43;;
43694;SDS011;29300;43.560;1.294;2022-10-31T15:38:47;5.90;;;4.07;;
43694;SDS011;29300;43.560;1.294;2022-10-31T15:41:27;8.23;;;4.70;;
43694;SDS011;29300;43.560;1.294;2022-10-31T15:43:55;6.27;;;4.47;;
43694;SDS011;29300;43.560;1.294;2022-10-31T15:46:26;6.60;;;4.22;;
43694;SDS011;29300;43.560;1.294;2022-10-31T15:48:52;7.03;;;3.75;;
43694;SDS011;29300;43.560;1.294;2022-10-31T15:51:24;7.22;;;4.28;;
43694;SDS011;29300;43.560;1.294;2022-10-31T15:53:52;8.10;;;4.25;;
43694;SDS011;29300;43.560;1.294;2022-10-31T15:56:24;5.53;;;3.70;;
43694;SDS011;29300;43.560;1.294;2022-10-31T15:58:52;6.97;;;4.30;;
43694;SDS011;29300;43.560;1.294;2022-10-31T16:01:29;4.20;;;3.55;;
43694;SDS011;29300;43.560;1.294;2022-10-31T16:06:24;6.82;;;4.18;;
43694;SDS011;29300;43.560;1.294;2022-10-31T16:08:50;4.47;;;3.90;;
43694;SDS011;29300;43.560;1.294;2022-10-31T16:11:20;6.30;;;4.30;;
43694;SDS011;29300;43.560;1.294;2022-10-31T16:16:31;8.43;;;5.07;;
43694;SDS011;29300;43.560;1.294;2022-10-31T16:18:58;9.40;;;5.03;;
43694;SDS011;29300;43.560;1.294;2022-10-31T16:21:26;7.57;;;4.43;;
43694;SDS011;29300;43.560;1.294;2022-10-31T16:24:01;6.40;;;4.30;;
43694;SDS011;29300;43.560;1.294;2022-10-31T16:26:35;5.70;;;4.43;;
43694;SDS011;29300;43.560;1.294;2022-10-31T16:29:01;6.15;;;4.18;;
43694;SDS011;29300;43.560;1.294;2022-10-31T16:31:28;11.45;;;4.90;;
43694;SDS011;29300;43.560;1.294;2022-10-31T16:34:04;7.85;;;5.03;;
43694;SDS011;29300;43.560;1.294;2022-10-31T16:36:40;7.57;;;4.45;;
43694;SDS011;29300;43.560;1.294;2022-10-31T16:39:06;12.98;;;4.80;;
43694;SDS011;29300;43.560;1.294;2022-10-31T16:41:34;7.95;;;4.82;;
43694;SDS011;29300;43.560;1.294;2022-10-31T16:44:06;7.30;;;4.50;;
43694;SDS011;29300;43.560;1.294;2022-10-31T16:46:43;6.55;;;4.45;;
43694;SDS011;29300;43.560;1.294;2022-10-31T16:52:37;7.55;;;3.90;;
43694;SDS011;29300;43.560;1.294;2022-10-31T16:55:15;5.35;;;4.53;;
43694;SDS011;29300;43.560;1.294;2022-10-31T16:57:44;4.93;;;4.32;;
43694;SDS011;29300;43.560;1.294;2022-10-31T17:00:39;5.50;;;4.20;;
43694;SDS011;29300;43.560;1.294;2022-10-31T17:03:04;6.30;;;4.05;;
43694;SDS011;29300;43.560;1.294;2022-10-31T17:05:30;7.55;;;3.83;;
43694;SDS011;29300;43.560;1.294;2022-10-31T17:07:57;6.15;;;3.75;;
43694;SDS011;29300;43.560;1.294;2022-10-31T17:10:23;4.32;;;3.80;;
43694;SDS011;29300;43.560;1.294;2022-10-31T17:12:50;6.18;;;4.07;;
43694;SDS011;29300;43.560;1.294;2022-10-31T17:15:17;6.07;;;3.97;;
43694;SDS011;29300;43.560;1.294;2022-10-31T17:17:45;6.18;;;3.60;;
43694;SDS011;29300;43.560;1.294;2022-10-31T17:20:21;4.30;;;3.83;;
43694;SDS011;29300;43.560;1.294;2022-10-31T17:22:49;5.30;;;3.90;;
43694;SDS011;29300;43.560;1.294;2022-10-31T17:25:15;4.90;;;3.88;;
43694;SDS011;29300;43.560;1.294;2022-10-31T17:27:43;5.50;;;4.10;;
43694;SDS011;29300;43.560;1.294;2022-10-31T17:30:10;4.63;;;4.05;;
43694;SDS011;29300;43.560;1.294;2022-10-31T17:35:06;7.15;;;4.30;;
43694;SDS011;29300;43.560;1.294;2022-10-31T17:37:33;7.15;;;4.85;;
43694;SDS011;29300;43.560;1.294;2022-10-31T17:39:59;7.15;;;4.75;;
43694;SDS011;29300;43.560;1.294;2022-10-31T17:42:25;5.63;;;4.95;;
43694;SDS011;29300;43.560;1.294;2022-10-31T17:44:51;5.68;;;4.43;;
43694;SDS011;29300;43.560;1.294;2022-10-31T17:47:16;6.07;;;4.68;;
43694;SDS011;29300;43.560;1.294;2022-10-31T17:49:42;8.35;;;4.35;;
43694;SDS011;29300;43.560;1.294;2022-10-31T17:52:08;7.93;;;4.65;;
43694;SDS011;29300;43.560;1.294;2022-10-31T17:54:34;6.25;;;4.80;;
43694;SDS011;29300;43.560;1.294;2022-10-31T17:56:59;7.32;;;4.80;;
43694;SDS011;29300;43.560;1.294;2022-10-31T17:59:25;7.22;;;3.97;;